Главная страница
METAR-TAF:

METAR-TAF

Аэропорты :

Вено, Микронезия

широта: 07-28N, долгота: 151-51E, высота над уровнем моря: 3 м

Текущие метеонаблюдения

Эта сводка был подготовлена 54 минут назад, в 08:53 UTC
Ветер 7 Узел от северо-восточный
Температура 28°C
Влажность 84%
Давление 1005 hPa
Видимость: 24.1 км
небольшая облачность на высоте 1400 фута
Рассеянная облачность на высоте 28000 фута

METAR: PTKK 240853Z 04007KT 15SM FEW014 BKN280 28/25 A2969 RMK SLP055 8/101 T02830250 52017

Время: 19:47 (09:47 UTC)

Прогноз

Эта сводка был подготовлена 4 часа и 27 минут назад, в 05:20 UTC
Прогноз действительный с 24-го 06 UTC до 25-го 06 UTC
Ветер 12 Узел от северо-восточный
Видимость: 10 км
небольшая облачность на высоте 2000 фута
небольшая облачность на высоте 5000 фута

TAF: PTKK 240520Z 2406/2506 04012KT P6SM FEW020 FEW050

Метеонаблюдения и прогнозы для более 4000 аэропортов (сводки METAR и TAF).

Имеющиеся станции представлены на карте желтыми и красными точками.

Чтобы увидеть название станции, наведите на нее мышь.

Затем щелкните, чтобы увидеть метеонаблюдения и метеопрогнозы.

Управление картой: чтобы увеличить масштаб, щелкните зеленые кнопки с черным крестиком; чтобы уменьшить масштаб, щелкните зеленую кнопку с тире; для просмотра соседних карт щелкайте зеленые стрелки.


METAR-TAF: